sensor_id;sensor_type;location;lat;lon;timestamp;temperature;humidity
31967;DHT22;18496;52.042;6.812;2024-03-23T00:54:07;11.00;99.90
31967;DHT22;18496;52.042;6.812;2024-03-23T00:56:11;11.00;99.90
31967;DHT22;18496;52.042;6.812;2024-03-23T00:58:15;11.00;99.90
31967;DHT22;18496;52.042;6.812;2024-03-23T01:00:21;11.00;99.90
31967;DHT22;18496;52.042;6.812;2024-03-23T01:02:24;11.00;99.90
31967;DHT22;18496;52.042;6.812;2024-03-23T01:04:28;11.00;99.90
31967;DHT22;18496;52.042;6.812;2024-03-23T01:06:32;11.00;99.90
31967;DHT22;18496;52.042;6.812;2024-03-23T01:08:35;11.00;99.90
31967;DHT22;18496;52.042;6.812;2024-03-23T01:10:39;11.00;99.90
31967;DHT22;18496;52.042;6.812;2024-03-23T01:12:43;10.90;99.90
31967;DHT22;18496;52.042;6.812;2024-03-23T01:14:47;10.90;99.90
31967;DHT22;18496;52.042;6.812;2024-03-23T01:16:50;10.90;99.90
31967;DHT22;18496;52.042;6.812;2024-03-23T01:18:54;10.90;99.90
31967;DHT22;18496;52.042;6.812;2024-03-23T01:20:58;10.90;99.90
31967;DHT22;18496;52.042;6.812;2024-03-23T01:23:01;10.90;99.90
31967;DHT22;18496;52.042;6.812;2024-03-23T01:25:05;10.90;99.90
31967;DHT22;18496;52.042;6.812;2024-03-23T01:27:09;10.90;99.90
31967;DHT22;18496;52.042;6.812;2024-03-23T01:29:13;10.90;99.90
31967;DHT22;18496;52.042;6.812;2024-03-23T01:31:17;10.80;99.90
31967;DHT22;18496;52.042;6.812;2024-03-23T01:33:20;10.80;99.90
31967;DHT22;18496;52.042;6.812;2024-03-23T01:35:24;10.80;99.90
31967;DHT22;18496;52.042;6.812;2024-03-23T01:37:28;10.80;99.90
31967;DHT22;18496;52.042;6.812;2024-03-23T01:39:31;10.70;99.90
31967;DHT22;18496;52.042;6.812;2024-03-23T01:41:35;10.70;99.90
31967;DHT22;18496;52.042;6.812;2024-03-23T01:43:40;10.70;99.90
31967;DHT22;18496;52.042;6.812;2024-03-23T01:45:44;10.70;99.90
31967;DHT22;18496;52.042;6.812;2024-03-23T01:47:49;10.60;99.90
31967;DHT22;18496;52.042;6.812;2024-03-23T01:49:53;10.60;99.90
31967;DHT22;18496;52.042;6.812;2024-03-23T01:51:57;10.60;99.90
31967;DHT22;18496;52.042;6.812;2024-03-23T01:54:04;10.60;99.90
31967;DHT22;18496;52.042;6.812;2024-03-23T01:56:09;10.60;99.90
31967;DHT22;18496;52.042;6.812;2024-03-23T01:58:13;10.50;99.90
31967;DHT22;18496;52.042;6.812;2024-03-23T02:00:17;10.50;99.90
31967;DHT22;18496;52.042;6.812;2024-03-23T02:02:21;10.50;99.90
31967;DHT22;18496;52.042;6.812;2024-03-23T02:04:24;10.50;99.90
31967;DHT22;18496;52.042;6.812;2024-03-23T02:06:28;10.50;99.90
31967;DHT22;18496;52.042;6.812;2024-03-23T02:08:32;10.50;99.90
31967;DHT22;18496;52.042;6.812;2024-03-23T02:10:36;10.40;99.90
31967;DHT22;18496;52.042;6.812;2024-03-23T02:12:40;10.40;99.90
31967;DHT22;18496;52.042;6.812;2024-03-23T02:14:44;10.40;99.90
31967;DHT22;18496;52.042;6.812;2024-03-23T02:16:47;10.40;99.90
31967;DHT22;18496;52.042;6.812;2024-03-23T02:18:51;10.40;99.90
31967;DHT22;18496;52.042;6.812;2024-03-23T02:20:55;10.40;99.90
31967;DHT22;18496;52.042;6.812;2024-03-23T02:22:59;10.30;99.90
31967;DHT22;18496;52.042;6.812;2024-03-23T02:25:06;10.30;99.90
31967;DHT22;18496;52.042;6.812;2024-03-23T02:27:10;10.30;99.90
31967;DHT22;18496;52.042;6.812;2024-03-23T02:29:14;10.30;99.90
31967;DHT22;18496;52.042;6.812;2024-03-23T02:31:18;10.30;99.90
31967;DHT22;18496;52.042;6.812;2024-03-23T02:33:22;10.20;99.90
31967;DHT22;18496;52.042;6.812;2024-03-23T02:35:25;10.20;99.90
31967;DHT22;18496;52.042;6.812;2024-03-23T02:37:29;10.30;99.90
31967;DHT22;18496;52.042;6.812;2024-03-23T02:39:33;10.30;99.90
31967;DHT22;18496;52.042;6.812;2024-03-23T02:41:37;10.20;99.90
31967;DHT22;18496;52.042;6.812;2024-03-23T02:43:40;10.30;99.90
31967;DHT22;18496;52.042;6.812;2024-03-23T02:45:44;10.30;99.90
31967;DHT22;18496;52.042;6.812;2024-03-23T02:47:47;10.30;99.90
31967;DHT22;18496;52.042;6.812;2024-03-23T02:49:55;10.30;99.90
31967;DHT22;18496;52.042;6.812;2024-03-23T02:51:59;10.20;99.90
31967;DHT22;18496;52.042;6.812;2024-03-23T02:54:02;10.20;99.90
31967;DHT22;18496;52.042;6.812;2024-03-23T02:56:06;10.20;99.90
31967;DHT22;18496;52.042;6.812;2024-03-23T02:58:10;10.20;99.90
31967;DHT22;18496;52.042;6.812;2024-03-23T03:00:14;10.20;99.90
31967;DHT22;18496;52.042;6.812;2024-03-23T03:02:19;10.20;99.90
31967;DHT22;18496;52.042;6.812;2024-03-23T03:04:23;10.20;99.90
31967;DHT22;18496;52.042;6.812;2024-03-23T03:06:27;10.20;99.90
31967;DHT22;18496;52.042;6.812;2024-03-23T03:08:31;10.20;99.90
31967;DHT22;18496;52.042;6.812;2024-03-23T03:10:35;10.10;99.90
31967;DHT22;18496;52.042;6.812;2024-03-23T03:12:39;10.10;99.90
31967;DHT22;18496;52.042;6.812;2024-03-23T03:14:43;10.10;99.90
31967;DHT22;18496;52.042;6.812;2024-03-23T03:16:47;10.00;99.90
31967;DHT22;18496;52.042;6.812;2024-03-23T03:18:51;10.00;99.90
31967;DHT22;18496;52.042;6.812;2024-03-23T03:20:56;10.00;99.90
31967;DHT22;18496;52.042;6.812;2024-03-23T03:23:00;9.90;99.90
31967;DHT22;18496;52.042;6.812;2024-03-23T03:25:04;9.90;99.90
31967;DHT22;18496;52.042;6.812;2024-03-23T03:27:09;9.90;99.90
31967;DHT22;18496;52.042;6.812;2024-03-23T03:29:13;9.80;99.90
31967;DHT22;18496;52.042;6.812;2024-03-23T03:31:17;9.80;99.90
31967;DHT22;18496;52.042;6.812;2024-03-23T03:33:22;9.80;99.90
31967;DHT22;18496;52.042;6.812;2024-03-23T03:35:25;9.70;99.90
31967;DHT22;18496;52.042;6.812;2024-03-23T03:37:29;9.70;99.90
31967;DHT22;18496;52.042;6.812;2024-03-23T03:39:33;9.70;99.90
31967;DHT22;18496;52.042;6.812;2024-03-23T03:41:36;9.70;99.90
31967;DHT22;18496;52.042;6.812;2024-03-23T03:43:40;9.70;99.90
31967;DHT22;18496;52.042;6.812;2024-03-23T03:45:52;9.60;99.90
31967;DHT22;18496;52.042;6.812;2024-03-23T03:47:56;9.60;99.90
31967;DHT22;18496;52.042;6.812;2024-03-23T03:49:59;9.60;99.90
31967;DHT22;18496;52.042;6.812;2024-03-23T03:52:04;9.50;99.90
31967;DHT22;18496;52.042;6.812;2024-03-23T03:54:07;9.50;99.90
31967;DHT22;18496;52.042;6.812;2024-03-23T03:56:11;9.50;99.90
31967;DHT22;18496;52.042;6.812;2024-03-23T03:58:15;9.50;99.90
31967;DHT22;18496;52.042;6.812;2024-03-23T04:00:19;9.50;99.90
31967;DHT22;18496;52.042;6.812;2024-03-23T04:02:23;9.60;99.90
31967;DHT22;18496;52.042;6.812;2024-03-23T04:04:26;9.60;99.90
31967;DHT22;18496;52.042;6.812;2024-03-23T04:06:30;9.50;99.90
31967;DHT22;18496;52.042;6.812;2024-03-23T04:08:34;9.50;99.90
31967;DHT22;18496;52.042;6.812;2024-03-23T04:10:37;9.50;99.90
31967;DHT22;18496;52.042;6.812;2024-03-23T04:12:43;9.50;99.90
31967;DHT22;18496;52.042;6.812;2024-03-23T04:14:46;9.40;99.90
31967;DHT22;18496;52.042;6.812;2024-03-23T04:16:50;9.40;99.90
31967;DHT22;18496;52.042;6.812;2024-03-23T04:18:54;9.40;99.90
31967;DHT22;18496;52.042;6.812;2024-03-23T04:20:57;9.40;99.90
31967;DHT22;18496;52.042;6.812;2024-03-23T04:23:01;9.40;99.90
31967;DHT22;18496;52.042;6.812;2024-03-23T04:25:05;9.40;99.90
31967;DHT22;18496;52.042;6.812;2024-03-23T04:27:13;9.30;99.90
31967;DHT22;18496;52.042;6.812;2024-03-23T04:29:17;9.20;99.90
31967;DHT22;18496;52.042;6.812;2024-03-23T04:31:21;9.20;99.90
31967;DHT22;18496;52.042;6.812;2024-03-23T04:33:25;9.20;99.90
31967;DHT22;18496;52.042;6.812;2024-03-23T04:35:28;9.20;99.90
31967;DHT22;18496;52.042;6.812;2024-03-23T04:37:32;9.20;99.90
31967;DHT22;18496;52.042;6.812;2024-03-23T04:39:37;9.10;99.90
31967;DHT22;18496;52.042;6.812;2024-03-23T04:41:41;9.10;99.90
31967;DHT22;18496;52.042;6.812;2024-03-23T04:43:44;9.10;99.90
31967;DHT22;18496;52.042;6.812;2024-03-23T04:45:48;9.00;99.90
31967;DHT22;18496;52.042;6.812;2024-03-23T04:47:52;9.10;99.90
31967;DHT22;18496;52.042;6.812;2024-03-23T04:49:56;9.00;99.90
31967;DHT22;18496;52.042;6.812;2024-03-23T04:52:00;9.00;99.90
31967;DHT22;18496;52.042;6.812;2024-03-23T04:54:04;9.00;99.90
31967;DHT22;18496;52.042;6.812;2024-03-23T04:56:09;9.00;99.90
31967;DHT22;18496;52.042;6.812;2024-03-23T04:58:13;8.90;99.90
31967;DHT22;18496;52.042;6.812;2024-03-23T05:00:17;8.80;99.90
31967;DHT22;18496;52.042;6.812;2024-03-23T05:02:21;8.80;99.90
31967;DHT22;18496;52.042;6.812;2024-03-23T05:04:27;8.70;99.90
31967;DHT22;18496;52.042;6.812;2024-03-23T05:06:31;8.70;99.90
31967;DHT22;18496;52.042;6.812;2024-03-23T05:08:35;8.70;99.90
31967;DHT22;18496;52.042;6.812;2024-03-23T05:10:38;8.70;99.90
31967;DHT22;18496;52.042;6.812;2024-03-23T05:12:42;8.70;99.90
31967;DHT22;18496;52.042;6.812;2024-03-23T05:14:47;8.70;99.90
31967;DHT22;18496;52.042;6.812;2024-03-23T05:16:51;8.70;99.90
31967;DHT22;18496;52.042;6.812;2024-03-23T05:18:54;8.70;99.90
31967;DHT22;18496;52.042;6.812;2024-03-23T05:20:58;8.70;99.90
31967;DHT22;18496;52.042;6.812;2024-03-23T05:23:02;8.70;99.90
31967;DHT22;18496;52.042;6.812;2024-03-23T05:25:06;8.70;99.90
31967;DHT22;18496;52.042;6.812;2024-03-23T05:27:10;8.70;99.90
31967;DHT22;18496;52.042;6.812;2024-03-23T05:29:14;8.70;99.90
31967;DHT22;18496;52.042;6.812;2024-03-23T05:31:28;8.70;99.90
31967;DHT22;18496;52.042;6.812;2024-03-23T05:33:32;8.70;99.90
31967;DHT22;18496;52.042;6.812;2024-03-23T05:35:35;8.70;99.90
31967;DHT22;18496;52.042;6.812;2024-03-23T05:37:39;8.70;99.90
31967;DHT22;18496;52.042;6.812;2024-03-23T05:39:43;8.70;99.90
31967;DHT22;18496;52.042;6.812;2024-03-23T05:41:46;8.70;99.90
31967;DHT22;18496;52.042;6.812;2024-03-23T05:43:50;8.60;99.90
31967;DHT22;18496;52.042;6.812;2024-03-23T05:46:01;8.60;99.90
31967;DHT22;18496;52.042;6.812;2024-03-23T05:48:13;8.50;99.90
31967;DHT22;18496;52.042;6.812;2024-03-23T05:50:17;8.50;99.90
31967;DHT22;18496;52.042;6.812;2024-03-23T05:52:21;8.60;99.90
31967;DHT22;18496;52.042;6.812;2024-03-23T05:54:25;8.50;99.90
31967;DHT22;18496;52.042;6.812;2024-03-23T05:56:29;8.50;99.90
31967;DHT22;18496;52.042;6.812;2024-03-23T05:58:33;8.60;99.90
31967;DHT22;18496;52.042;6.812;2024-03-23T06:00:36;8.50;99.90
31967;DHT22;18496;52.042;6.812;2024-03-23T06:02:40;8.60;99.90
31967;DHT22;18496;52.042;6.812;2024-03-23T06:04:45;8.50;99.90
31967;DHT22;18496;52.042;6.812;2024-03-23T06:06:50;8.50;99.90
31967;DHT22;18496;52.042;6.812;2024-03-23T06:08:55;8.50;99.90
31967;DHT22;18496;52.042;6.812;2024-03-23T06:10:59;8.50;99.90
31967;DHT22;18496;52.042;6.812;2024-03-23T06:13:03;8.50;99.90
31967;DHT22;18496;52.042;6.812;2024-03-23T06:15:07;8.50;99.90
31967;DHT22;18496;52.042;6.812;2024-03-23T06:17:13;8.50;99.90
31967;DHT22;18496;52.042;6.812;2024-03-23T06:19:17;8.50;99.90
31967;DHT22;18496;52.042;6.812;2024-03-23T06:21:21;8.50;99.90
31967;DHT22;18496;52.042;6.812;2024-03-23T06:23:27;8.40;99.90
31967;DHT22;18496;52.042;6.812;2024-03-23T06:25:30;8.50;99.90
31967;DHT22;18496;52.042;6.812;2024-03-23T06:27:34;8.50;99.90
31967;DHT22;18496;52.042;6.812;2024-03-23T06:29:38;8.50;99.90
31967;DHT22;18496;52.042;6.812;2024-03-23T06:31:42;8.50;99.90
31967;DHT22;18496;52.042;6.812;2024-03-23T06:33:45;8.50;99.90
31967;DHT22;18496;52.042;6.812;2024-03-23T06:35:50;8.50;99.90
31967;DHT22;18496;52.042;6.812;2024-03-23T06:37:55;8.50;99.90
31967;DHT22;18496;52.042;6.812;2024-03-23T06:39:59;8.50;99.90
31967;DHT22;18496;52.042;6.812;2024-03-23T06:42:03;8.50;99.90
31967;DHT22;18496;52.042;6.812;2024-03-23T06:44:07;8.50;99.90
31967;DHT22;18496;52.042;6.812;2024-03-23T06:46:11;8.50;99.90
31967;DHT22;18496;52.042;6.812;2024-03-23T06:48:14;8.50;99.90
31967;DHT22;18496;52.042;6.812;2024-03-23T06:50:18;8.50;99.90
31967;DHT22;18496;52.042;6.812;2024-03-23T06:52:22;8.50;99.90
31967;DHT22;18496;52.042;6.812;2024-03-23T06:54:26;8.50;99.90
31967;DHT22;18496;52.042;6.812;2024-03-23T06:56:30;8.50;99.90
31967;DHT22;18496;52.042;6.812;2024-03-23T06:58:33;8.50;99.90
31967;DHT22;18496;52.042;6.812;2024-03-23T07:00:37;8.50;99.90
31967;DHT22;18496;52.042;6.812;2024-03-23T07:02:41;8.40;99.90
31967;DHT22;18496;52.042;6.812;2024-03-23T07:04:45;8.50;99.90
31967;DHT22;18496;52.042;6.812;2024-03-23T07:06:48;8.40;99.90
31967;DHT22;18496;52.042;6.812;2024-03-23T07:08:52;8.40;99.90
31967;DHT22;18496;52.042;6.812;2024-03-23T07:10:56;8.40;99.90
31967;DHT22;18496;52.042;6.812;2024-03-23T07:13:03;8.40;99.90
31967;DHT22;18496;52.042;6.812;2024-03-23T07:15:07;8.40;99.90
31967;DHT22;18496;52.042;6.812;2024-03-23T07:17:14;8.50;99.90
31967;DHT22;18496;52.042;6.812;2024-03-23T07:19:18;8.50;99.90
31967;DHT22;18496;52.042;6.812;2024-03-23T07:21:22;8.50;99.90
31967;DHT22;18496;52.042;6.812;2024-03-23T07:23:26;8.50;99.90
31967;DHT22;18496;52.042;6.812;2024-03-23T07:25:32;8.50;99.90
31967;DHT22;18496;52.042;6.812;2024-03-23T07:27:39;8.50;99.90
31967;DHT22;18496;52.042;6.812;2024-03-23T07:29:42;8.50;99.90
31967;DHT22;18496;52.042;6.812;2024-03-23T07:31:46;8.50;99.90
31967;DHT22;18496;52.042;6.812;2024-03-23T07:33:55;8.50;99.90
31967;DHT22;18496;52.042;6.812;2024-03-23T07:35:59;8.50;99.90
31967;DHT22;18496;52.042;6.812;2024-03-23T07:38:03;8.60;99.90
31967;DHT22;18496;52.042;6.812;2024-03-23T07:40:09;8.60;99.90
31967;DHT22;18496;52.042;6.812;2024-03-23T07:42:13;8.70;99.90
31967;DHT22;18496;52.042;6.812;2024-03-23T07:44:16;8.70;99.90
31967;DHT22;18496;52.042;6.812;2024-03-23T07:46:20;8.80;99.90
31967;DHT22;18496;52.042;6.812;2024-03-23T07:48:24;8.80;99.90
31967;DHT22;18496;52.042;6.812;2024-03-23T07:50:28;8.80;99.90
31967;DHT22;18496;52.042;6.812;2024-03-23T07:52:31;8.80;99.90
31967;DHT22;18496;52.042;6.812;2024-03-23T07:54:35;8.80;99.90
31967;DHT22;18496;52.042;6.812;2024-03-23T07:56:39;8.80;99.90
31967;DHT22;18496;52.042;6.812;2024-03-23T07:58:42;8.80;99.90
31967;DHT22;18496;52.042;6.812;2024-03-23T08:00:46;8.90;99.90
31967;DHT22;18496;52.042;6.812;2024-03-23T08:02:51;8.90;99.90
31967;DHT22;18496;52.042;6.812;2024-03-23T08:04:55;9.00;99.90
31967;DHT22;18496;52.042;6.812;2024-03-23T08:06:58;9.00;99.90
31967;DHT22;18496;52.042;6.812;2024-03-23T08:09:03;9.10;99.90
31967;DHT22;18496;52.042;6.812;2024-03-23T08:11:07;9.10;99.90
31967;DHT22;18496;52.042;6.812;2024-03-23T08:13:11;9.10;99.90
31967;DHT22;18496;52.042;6.812;2024-03-23T08:15:15;9.10;99.90
31967;DHT22;18496;52.042;6.812;2024-03-23T08:17:18;9.10;99.90
31967;DHT22;18496;52.042;6.812;2024-03-23T08:19:22;9.10;99.90
31967;DHT22;18496;52.042;6.812;2024-03-23T08:21:26;9.10;99.90
31967;DHT22;18496;52.042;6.812;2024-03-23T08:23:36;9.10;99.90
31967;DHT22;18496;52.042;6.812;2024-03-23T08:25:44;9.10;99.90
31967;DHT22;18496;52.042;6.812;2024-03-23T08:28:07;9.20;99.90
31967;DHT22;18496;52.042;6.812;2024-03-23T08:30:28;9.20;99.90
31967;DHT22;18496;52.042;6.812;2024-03-23T08:32:33;9.10;99.90
31967;DHT22;18496;52.042;6.812;2024-03-23T08:34:40;9.10;99.90
31967;DHT22;18496;52.042;6.812;2024-03-23T08:36:44;9.10;99.90
31967;DHT22;18496;52.042;6.812;2024-03-23T08:38:47;9.20;99.90
31967;DHT22;18496;52.042;6.812;2024-03-23T08:43:04;9.20;99.90
31967;DHT22;18496;52.042;6.812;2024-03-23T08:45:08;9.20;99.90
31967;DHT22;18496;52.042;6.812;2024-03-23T08:47:15;9.10;99.90
31967;DHT22;18496;52.042;6.812;2024-03-23T08:49:19;9.10;99.90
31967;DHT22;18496;52.042;6.812;2024-03-23T08:51:26;9.10;99.90
31967;DHT22;18496;52.042;6.812;2024-03-23T08:53:30;9.10;99.90
31967;DHT22;18496;52.042;6.812;2024-03-23T08:55:34;9.20;99.90
31967;DHT22;18496;52.042;6.812;2024-03-23T08:57:38;9.20;99.90
31967;DHT22;18496;52.042;6.812;2024-03-23T08:59:42;9.20;99.90
31967;DHT22;18496;52.042;6.812;2024-03-23T09:01:46;9.20;99.90
31967;DHT22;18496;52.042;6.812;2024-03-23T09:03:51;9.20;99.90
31967;DHT22;18496;52.042;6.812;2024-03-23T09:05:54;9.20;99.90
31967;DHT22;18496;52.042;6.812;2024-03-23T09:07:58;9.20;99.90
31967;DHT22;18496;52.042;6.812;2024-03-23T09:10:02;9.30;99.90
31967;DHT22;18496;52.042;6.812;2024-03-23T09:12:06;9.30;99.90
31967;DHT22;18496;52.042;6.812;2024-03-23T09:14:10;9.30;99.90
31967;DHT22;18496;52.042;6.812;2024-03-23T09:16:14;9.30;99.90
31967;DHT22;18496;52.042;6.812;2024-03-23T09:18:17;9.30;99.90
31967;DHT22;18496;52.042;6.812;2024-03-23T09:20:21;9.30;99.90
31967;DHT22;18496;52.042;6.812;2024-03-23T09:22:25;9.30;99.90
31967;DHT22;18496;52.042;6.812;2024-03-23T09:24:28;9.30;99.90
31967;DHT22;18496;52.042;6.812;2024-03-23T09:26:32;9.40;99.90
31967;DHT22;18496;52.042;6.812;2024-03-23T09:28:36;9.40;99.90
31967;DHT22;18496;52.042;6.812;2024-03-23T09:30:40;9.40;99.90
31967;DHT22;18496;52.042;6.812;2024-03-23T09:32:46;9.40;99.90
31967;DHT22;18496;52.042;6.812;2024-03-23T09:34:50;9.40;99.90
31967;DHT22;18496;52.042;6.812;2024-03-23T09:36:54;9.40;99.90
31967;DHT22;18496;52.042;6.812;2024-03-23T09:38:57;9.40;99.90
31967;DHT22;18496;52.042;6.812;2024-03-23T09:41:07;9.40;99.90
31967;DHT22;18496;52.042;6.812;2024-03-23T09:43:11;9.30;99.90
31967;DHT22;18496;52.042;6.812;2024-03-23T09:45:21;9.30;99.90
31967;DHT22;18496;52.042;6.812;2024-03-23T09:47:25;9.30;99.90
31967;DHT22;18496;52.042;6.812;2024-03-23T09:49:29;9.30;99.90
31967;DHT22;18496;52.042;6.812;2024-03-23T09:51:35;9.30;99.90
31967;DHT22;18496;52.042;6.812;2024-03-23T09:53:39;9.30;99.90
31967;DHT22;18496;52.042;6.812;2024-03-23T09:55:44;9.30;99.90
31967;DHT22;18496;52.042;6.812;2024-03-23T09:57:48;9.30;99.90
31967;DHT22;18496;52.042;6.812;2024-03-23T09:59:52;9.30;99.90
31967;DHT22;18496;52.042;6.812;2024-03-23T10:01:56;9.30;99.90
31967;DHT22;18496;52.042;6.812;2024-03-23T10:04:00;9.40;99.90
31967;DHT22;18496;52.042;6.812;2024-03-23T10:06:04;9.40;99.90
31967;DHT22;18496;52.042;6.812;2024-03-23T10:10:18;9.70;99.90
31967;DHT22;18496;52.042;6.812;2024-03-23T10:12:23;9.90;99.90
31967;DHT22;18496;52.042;6.812;2024-03-23T10:14:31;10.00;99.90
31967;DHT22;18496;52.042;6.812;2024-03-23T10:16:34;10.10;99.90
31967;DHT22;18496;52.042;6.812;2024-03-23T10:18:39;10.10;99.90
31967;DHT22;18496;52.042;6.812;2024-03-23T10:20:42;10.10;99.90
31967;DHT22;18496;52.042;6.812;2024-03-23T10:22:48;10.10;99.90
31967;DHT22;18496;52.042;6.812;2024-03-23T10:24:52;9.90;99.90
31967;DHT22;18496;52.042;6.812;2024-03-23T10:26:56;9.80;99.90
31967;DHT22;18496;52.042;6.812;2024-03-23T10:29:01;9.70;99.90
31967;DHT22;18496;52.042;6.812;2024-03-23T10:31:11;9.70;99.90
31967;DHT22;18496;52.042;6.812;2024-03-23T10:33:15;9.70;99.90
31967;DHT22;18496;52.042;6.812;2024-03-23T10:35:20;9.70;99.90
31967;DHT22;18496;52.042;6.812;2024-03-23T10:37:27;9.80;99.90
31967;DHT22;18496;52.042;6.812;2024-03-23T10:39:33;9.90;99.90
31967;DHT22;18496;52.042;6.812;2024-03-23T10:41:39;10.00;99.90
31967;DHT22;18496;52.042;6.812;2024-03-23T10:43:47;10.10;99.90
31967;DHT22;18496;52.042;6.812;2024-03-23T10:45:51;10.10;99.90
31967;DHT22;18496;52.042;6.812;2024-03-23T10:47:54;10.10;99.90
31967;DHT22;18496;52.042;6.812;2024-03-23T10:49:58;10.20;99.90
31967;DHT22;18496;52.042;6.812;2024-03-23T10:52:03;10.30;99.90
31967;DHT22;18496;52.042;6.812;2024-03-23T10:54:07;10.30;99.90
31967;DHT22;18496;52.042;6.812;2024-03-23T10:56:17;10.40;99.90
31967;DHT22;18496;52.042;6.812;2024-03-23T10:58:30;10.40;99.90
31967;DHT22;18496;52.042;6.812;2024-03-23T11:00:34;10.50;99.90
31967;DHT22;18496;52.042;6.812;2024-03-23T11:02:38;10.60;99.90
31967;DHT22;18496;52.042;6.812;2024-03-23T11:04:41;10.70;99.90
31967;DHT22;18496;52.042;6.812;2024-03-23T11:06:46;10.70;99.90
31967;DHT22;18496;52.042;6.812;2024-03-23T11:08:50;10.70;99.90
31967;DHT22;18496;52.042;6.812;2024-03-23T11:11:21;10.70;99.90
31967;DHT22;18496;52.042;6.812;2024-03-23T11:13:25;10.70;99.90
31967;DHT22;18496;52.042;6.812;2024-03-23T11:15:29;10.70;99.90
31967;DHT22;18496;52.042;6.812;2024-03-23T11:17:33;10.50;99.90
31967;DHT22;18496;52.042;6.812;2024-03-23T11:19:37;10.30;99.90
31967;DHT22;18496;52.042;6.812;2024-03-23T11:21:54;10.00;99.90
31967;DHT22;18496;52.042;6.812;2024-03-23T11:24:14;9.80;99.90
31967;DHT22;18496;52.042;6.812;2024-03-23T11:26:18;9.60;99.90
31967;DHT22;18496;52.042;6.812;2024-03-23T11:28:22;9.40;99.90
31967;DHT22;18496;52.042;6.812;2024-03-23T11:30:27;9.40;99.90
31967;DHT22;18496;52.042;6.812;2024-03-23T11:32:35;9.30;99.90
31967;DHT22;18496;52.042;6.812;2024-03-23T11:34:38;9.20;99.90
31967;DHT22;18496;52.042;6.812;2024-03-23T11:36:43;9.30;99.90
31967;DHT22;18496;52.042;6.812;2024-03-23T11:38:47;9.40;99.90
31967;DHT22;18496;52.042;6.812;2024-03-23T11:40:51;9.50;99.90
31967;DHT22;18496;52.042;6.812;2024-03-23T11:43:02;9.60;99.90
31967;DHT22;18496;52.042;6.812;2024-03-23T11:45:09;9.70;99.90
31967;DHT22;18496;52.042;6.812;2024-03-23T11:47:13;9.80;99.90
31967;DHT22;18496;52.042;6.812;2024-03-23T11:49:25;9.90;99.90
31967;DHT22;18496;52.042;6.812;2024-03-23T11:51:29;10.00;99.90
31967;DHT22;18496;52.042;6.812;2024-03-23T11:53:38;10.10;99.90
31967;DHT22;18496;52.042;6.812;2024-03-23T11:55:55;10.20;99.90
31967;DHT22;18496;52.042;6.812;2024-03-23T11:57:59;10.20;99.90
31967;DHT22;18496;52.042;6.812;2024-03-23T12:00:20;10.40;99.90
31967;DHT22;18496;52.042;6.812;2024-03-23T12:02:24;10.50;99.90
31967;DHT22;18496;52.042;6.812;2024-03-23T12:04:28;10.60;99.90
31967;DHT22;18496;52.042;6.812;2024-03-23T12:06:32;10.80;99.90
31967;DHT22;18496;52.042;6.812;2024-03-23T12:08:36;10.90;99.90
31967;DHT22;18496;52.042;6.812;2024-03-23T12:10:43;11.10;99.90
31967;DHT22;18496;52.042;6.812;2024-03-23T12:12:59;11.20;99.90
31967;DHT22;18496;52.042;6.812;2024-03-23T12:15:05;11.30;99.90
31967;DHT22;18496;52.042;6.812;2024-03-23T12:17:14;11.30;99.90
31967;DHT22;18496;52.042;6.812;2024-03-23T12:19:18;11.30;99.90
31967;DHT22;18496;52.042;6.812;2024-03-23T12:21:21;11.30;99.90
31967;DHT22;18496;52.042;6.812;2024-03-23T12:23:26;11.30;99.90
31967;DHT22;18496;52.042;6.812;2024-03-23T12:25:29;11.30;99.90
31967;DHT22;18496;52.042;6.812;2024-03-23T12:27:52;11.40;99.90
31967;DHT22;18496;52.042;6.812;2024-03-23T12:30:06;11.30;99.90
31967;DHT22;18496;52.042;6.812;2024-03-23T12:32:14;10.90;99.90
31967;DHT22;18496;52.042;6.812;2024-03-23T12:34:18;10.50;99.90
31967;DHT22;18496;52.042;6.812;2024-03-23T12:36:22;10.30;99.90
31967;DHT22;18496;52.042;6.812;2024-03-23T12:38:28;10.10;99.90
31967;DHT22;18496;52.042;6.812;2024-03-23T12:40:32;10.00;99.90
31967;DHT22;18496;52.042;6.812;2024-03-23T12:42:36;10.00;99.90
31967;DHT22;18496;52.042;6.812;2024-03-23T12:44:40;9.90;99.90
31967;DHT22;18496;52.042;6.812;2024-03-23T12:46:44;10.00;99.90
31967;DHT22;18496;52.042;6.812;2024-03-23T12:49:03;10.00;99.90
31967;DHT22;18496;52.042;6.812;2024-03-23T12:51:08;10.20;99.90
31967;DHT22;18496;52.042;6.812;2024-03-23T12:53:12;10.30;99.90
31967;DHT22;18496;52.042;6.812;2024-03-23T12:55:16;10.50;99.90
31967;DHT22;18496;52.042;6.812;2024-03-23T12:57:20;10.70;99.90
31967;DHT22;18496;52.042;6.812;2024-03-23T12:59:23;10.80;99.90
31967;DHT22;18496;52.042;6.812;2024-03-23T13:01:27;11.00;99.90
31967;DHT22;18496;52.042;6.812;2024-03-23T13:03:31;11.10;99.90
31967;DHT22;18496;52.042;6.812;2024-03-23T13:05:34;11.30;99.90
31967;DHT22;18496;52.042;6.812;2024-03-23T13:07:38;11.30;99.90
31967;DHT22;18496;52.042;6.812;2024-03-23T13:09:42;11.30;99.90
31967;DHT22;18496;52.042;6.812;2024-03-23T13:11:46;11.20;99.90
31967;DHT22;18496;52.042;6.812;2024-03-23T13:13:50;11.10;99.90
31967;DHT22;18496;52.042;6.812;2024-03-23T13:15:53;10.70;99.90
31967;DHT22;18496;52.042;6.812;2024-03-23T13:17:57;10.30;99.90
31967;DHT22;18496;52.042;6.812;2024-03-23T13:20:02;9.90;99.90
31967;DHT22;18496;52.042;6.812;2024-03-23T13:22:07;9.60;99.90
31967;DHT22;18496;52.042;6.812;2024-03-23T13:24:11;9.50;99.90
31967;DHT22;18496;52.042;6.812;2024-03-23T13:26:15;9.40;99.90
31967;DHT22;18496;52.042;6.812;2024-03-23T13:28:20;9.40;99.90
31967;DHT22;18496;52.042;6.812;2024-03-23T13:30:23;9.60;99.90
31967;DHT22;18496;52.042;6.812;2024-03-23T13:32:27;9.80;99.90
31967;DHT22;18496;52.042;6.812;2024-03-23T13:34:32;10.00;99.90
31967;DHT22;18496;52.042;6.812;2024-03-23T13:36:36;10.20;99.90
31967;DHT22;18496;52.042;6.812;2024-03-23T13:38:40;10.40;99.90
31967;DHT22;18496;52.042;6.812;2024-03-23T13:40:57;10.50;99.90
31967;DHT22;18496;52.042;6.812;2024-03-23T13:43:01;10.60;99.90
31967;DHT22;18496;52.042;6.812;2024-03-23T13:45:05;10.60;99.90
31967;DHT22;18496;52.042;6.812;2024-03-23T13:47:09;10.70;99.90
31967;DHT22;18496;52.042;6.812;2024-03-23T13:49:39;10.80;99.90
31967;DHT22;18496;52.042;6.812;2024-03-23T13:51:46;11.10;99.90
31967;DHT22;18496;52.042;6.812;2024-03-23T13:53:51;11.20;99.90
31967;DHT22;18496;52.042;6.812;2024-03-23T13:55:54;11.20;99.90
31967;DHT22;18496;52.042;6.812;2024-03-23T13:57:58;11.30;99.90
31967;DHT22;18496;52.042;6.812;2024-03-23T14:00:02;11.40;99.90
31967;DHT22;18496;52.042;6.812;2024-03-23T14:02:16;11.40;99.90
31967;DHT22;18496;52.042;6.812;2024-03-23T14:04:20;11.40;99.90
31967;DHT22;18496;52.042;6.812;2024-03-23T14:06:24;11.40;99.90
31967;DHT22;18496;52.042;6.812;2024-03-23T14:08:27;11.50;99.90
31967;DHT22;18496;52.042;6.812;2024-03-23T14:10:31;11.60;99.90
31967;DHT22;18496;52.042;6.812;2024-03-23T14:12:35;11.70;99.90
31967;DHT22;18496;52.042;6.812;2024-03-23T14:14:40;11.80;99.90